McKenna, Matthew
United StatesManBorn 19852011 – 2019Runner id 381151
Events
36
2011 – 2019
Best pace
13.670
km/h · 2016
Best finish
5th
of 358 · 2017
Distance raced
2,518
km · splits not double-counted
Pace over time
km/h · higher is faster
Pace over time: 36 races from 2011 to 2019, ranging from 6.36 to 13.67 kilometres per hour, where higher is faster. A second, age-graded series is drawn above it; the gap between the two is the age credit.
- Actual pace
- Age-graded pace
Results
| Date | Event | Distance | Result | Pace km/h | Placing |
|---|---|---|---|---|---|
| 2011-05-22 | Dirty German Endurance Fest 50 MileUnited States | 50mi | 7:58:05 h | 10.099 | 6/48 |
| 2012-08-25 | Bulldog 50k Ultra RunUnited States | 50km | 4:36:06 h | 10.866 | 9/174 |
| 2013-04-20 | 50km | 4:54:17 h | 10.194 | 19/44 | |
| 2013-05-04 | 50mi | 10:42:17 h | 7.517 | 57/275 | |
| 2013-05-26 | Dirty German Endurance Fest 50 MileUnited States | 50mi | 7:26:30 h | 10.813 | 2/75 |
| 2013-07-27 | 6h | 73.255 km | 12.209 | 3/46 | |
| 2013-08-24 | Bulldog 50k Ultra RunUnited States | 50km | 4:22:00 h | 11.450 | 4/177 |
| 2013-11-02 | 50mi | 7:22:00 h | 10.923 | 3/134 | |
| 2014-05-03 | 50mi | 10:34:48 h | 7.606 | 70/252 | |
| 2014-08-09 | Wildcat Ridge Romp 100 kmUnited States | 100km | 12:23:55 h | 8.065 | 2/2 |
| 2014-08-23 | 50km | 4:15:23 h | 11.747 | 5/175 | |
| 2014-11-08 | 50mi | 7:28:55 h | 10.755 | 8/133 | |
| 2014-11-15 | 60km | 4:46:23 h | 12.571 | 5/301 | |
| 2015-04-25 | 50km | 3:56:20 h | 12.694 | 3/38 | |
| 2015-05-02 | 50mi | 9:35:29 h | 8.390 | 32/302 | |
| 2015-07-18 | Lone Ranger 24 hr Urban UltraUnited States | 24h | 197.241 km | 8.218 | 2/128 |
| 2015-08-08 | 50km | 5:27:57 h | 9.148 | 3/40 | |
| 2015-11-07 | 50mi | 7:32:27 h | 10.671 | 4/105 | |
| 2015-11-14 | 60km | 4:37:06 h | 12.992 | 5/350 | |
| 2015-12-05 | NYC Staten Island Trail Festival 50KUnited States | 50km | 4:22:04 h | 11.447 | 6/69 |
| 2016-01-09 | 50km | 4:47:33 h | 10.433 | 2/32 | |
| 2016-03-06 | 50km | 3:39:28 h | 13.670 | 2/51 | |
| 2016-04-23 | 50km | 4:12:13 h | 11.895 | 5/41 | |
| 2016-04-30 | 50mi | 9:12:02 h | 8.746 | 41/330 | |
| 2016-05-07 | Long Island Greenbelt Trail 50 kmUnited States | 50km | 4:48:01 h | 10.416 | 4/55 |
| 2016-06-04 | 100mi | 20:28:06 h | 7.863 | 6/133 | |
| 2016-07-23 | BUS 6-Hour Pajama RunUnited States | 6h | 71.145 km | 11.858 | 1/29 |
| 2016-08-27 | 50km | 5:58:52 h | 8.360 | 11/54 | |
| 2017-06-10 | 50mi | 12:39:35 h | 6.356 | 34/75 | |
| 2017-11-04 | 50mi | 7:40:07 h | 10.493 | 5/118 | |
| 2017-11-18 | 60km | 4:40:08 h | 12.851 | 5/358 | |
| 2018-05-05 | 50km | 5:24:36 h | 9.242 | 24/442 | |
| 2018-06-03 | 50km | 4:41:34 h | 10.655 | 1/12 | |
| 2018-06-09 | 50km | 6:09:06 h | 8.128 | 8/177 | |
| 2019-04-20 | 50km | 4:53:06 h | 10.235 | 7/55 | |
| 2019-05-04 | 50km | 5:33:35 h | 8.993 | 24/442 |